createdAt,value
2019-03-19T00:02:13.342Z,13.00
2019-03-19T00:04:42.359Z,22.50
2019-03-19T00:07:11.398Z,17.50
2019-03-19T00:09:40.395Z,15.00
2019-03-19T00:12:09.371Z,15.50
2019-03-19T00:14:38.408Z,13.00
2019-03-19T00:17:07.426Z,14.50
2019-03-19T00:19:36.403Z,14.50
2019-03-19T00:22:07.132Z,14.00
2019-03-19T00:24:36.123Z,16.00
2019-03-19T00:27:05.300Z,18.00
2019-03-19T00:29:34.309Z,16.00
2019-03-19T00:32:03.412Z,19.00
2019-03-19T00:34:32.459Z,18.00
2019-03-19T00:37:01.536Z,20.00
2019-03-19T00:39:30.543Z,16.00
2019-03-19T00:41:59.653Z,15.50
2019-03-19T00:44:28.634Z,24.00
2019-03-19T00:46:57.688Z,20.00
2019-03-19T00:49:26.650Z,22.00
2019-03-19T00:51:55.652Z,21.00
2019-03-19T00:54:24.692Z,25.00
2019-03-19T00:56:53.814Z,27.50
2019-03-19T00:59:22.835Z,19.50
2019-03-19T01:01:51.941Z,20.50
2019-03-19T01:04:21.022Z,19.00
2019-03-19T01:06:50.044Z,21.00
2019-03-19T01:09:19.115Z,20.50
2019-03-19T01:11:48.132Z,26.00
2019-03-19T01:14:17.160Z,20.50
2019-03-19T01:16:46.200Z,25.00
2019-03-19T01:19:15.283Z,26.00
2019-03-19T01:21:44.291Z,20.00
2019-03-19T01:24:13.280Z,28.00
2019-03-19T01:26:42.300Z,24.50
2019-03-19T01:29:11.289Z,25.00
2019-03-19T01:31:40.352Z,22.00
2019-03-19T01:34:09.406Z,22.00
2019-03-19T01:36:39.682Z,25.00
2019-03-19T01:39:08.946Z,24.00
2019-03-19T01:41:37.969Z,20.00
2019-03-19T01:44:07.048Z,18.50
2019-03-19T01:46:36.014Z,27.50
2019-03-19T01:49:05.163Z,20.00
2019-03-19T01:51:34.188Z,26.00
2019-03-19T01:54:03.190Z,30.00
2019-03-19T01:56:32.253Z,23.50
2019-03-19T01:59:01.277Z,25.00
2019-03-19T02:01:30.284Z,25.00
2019-03-19T02:03:59.407Z,23.00
2019-03-19T02:06:28.521Z,22.50
2019-03-19T02:08:57.506Z,23.00
2019-03-19T02:11:26.520Z,23.50
2019-03-19T02:13:56.102Z,22.50
2019-03-19T02:16:25.158Z,22.00
2019-03-19T02:18:54.177Z,25.00
2019-03-19T02:21:23.165Z,24.00
2019-03-19T02:23:52.155Z,25.50
2019-03-19T02:26:21.161Z,31.00
2019-03-19T02:28:50.212Z,26.00
2019-03-19T02:31:19.222Z,29.00
2019-03-19T02:33:49.708Z,22.00
2019-03-19T02:36:18.716Z,22.50
2019-03-19T02:38:47.786Z,24.00
2019-03-19T02:41:16.804Z,25.50
2019-03-19T02:43:45.882Z,27.00
2019-03-19T02:46:14.951Z,23.50
2019-03-19T02:48:43.997Z,28.00
2019-03-19T02:51:13.086Z,23.00
2019-03-19T02:53:42.104Z,21.00
2019-03-19T02:56:11.125Z,23.50
2019-03-19T02:58:40.156Z,26.00
2019-03-19T03:01:09.182Z,24.00
2019-03-19T03:03:38.220Z,24.00
2019-03-19T03:06:07.390Z,25.50
2019-03-19T03:08:36.516Z,27.00
2019-03-19T03:11:05.602Z,25.50
2019-03-19T03:13:34.603Z,22.50
2019-03-19T03:16:03.618Z,26.00
2019-03-19T03:18:32.636Z,25.50
2019-03-19T03:21:01.832Z,22.00
2019-03-19T03:23:30.825Z,24.00
2019-03-19T03:25:59.875Z,22.50
2019-03-19T03:28:28.840Z,26.00
2019-03-19T03:30:57.833Z,22.50
2019-03-19T03:33:26.875Z,30.00
2019-03-19T03:35:55.893Z,23.00
2019-03-19T03:38:24.911Z,24.50
2019-03-19T03:40:54.000Z,24.00
2019-03-19T03:43:23.002Z,23.50
2019-03-19T03:45:51.978Z,28.00
2019-03-19T03:48:20.995Z,26.00
2019-03-19T03:50:50.179Z,22.50
2019-03-19T03:53:19.286Z,26.00
2019-03-19T03:55:48.505Z,25.50
2019-03-19T03:58:17.619Z,25.50
2019-03-19T04:00:46.769Z,23.50
2019-03-19T04:03:15.851Z,27.00
2019-03-19T04:05:46.218Z,29.00
2019-03-19T04:08:17.388Z,26.00
2019-03-19T04:10:46.495Z,24.00
2019-03-19T04:13:15.628Z,24.50
2019-03-19T04:15:44.610Z,27.50
2019-03-19T04:18:13.713Z,29.00
2019-03-19T04:20:42.784Z,26.00
2019-03-19T04:23:13.840Z,29.00
2019-03-19T04:25:42.888Z,27.00
2019-03-19T04:28:11.905Z,29.50
2019-03-19T04:30:40.939Z,24.50
2019-03-19T04:33:09.926Z,30.50
2019-03-19T04:35:38.973Z,32.00
2019-03-19T04:38:07.979Z,31.00
2019-03-19T04:40:36.996Z,32.00
2019-03-19T04:43:06.058Z,29.50
2019-03-19T04:45:35.149Z,30.50
2019-03-19T04:48:04.298Z,35.00
2019-03-19T04:50:33.328Z,34.00
2019-03-19T04:53:02.312Z,31.50
2019-03-19T04:55:31.350Z,33.00
2019-03-19T04:58:00.380Z,29.50
2019-03-19T05:00:29.433Z,27.00
2019-03-19T05:02:58.560Z,34.50
2019-03-19T05:05:27.636Z,35.00
2019-03-19T05:07:58.685Z,27.50
2019-03-19T05:10:27.711Z,32.50
2019-03-19T05:12:56.871Z,33.00
2019-03-19T05:15:25.912Z,31.50
2019-03-19T05:17:54.928Z,24.50
2019-03-19T05:20:23.912Z,33.00
2019-03-19T05:22:52.902Z,36.00
2019-03-19T05:25:22.863Z,30.50
2019-03-19T05:27:51.967Z,37.50
2019-03-19T05:30:21.069Z,35.50
2019-03-19T05:32:50.105Z,33.00
2019-03-19T05:35:19.301Z,30.00
2019-03-19T05:37:48.386Z,37.00
2019-03-19T05:40:17.595Z,30.00
2019-03-19T05:42:46.580Z,28.50
2019-03-19T05:45:15.767Z,31.50
2019-03-19T05:47:45.067Z,30.50
2019-03-19T05:50:14.312Z,28.00
2019-03-19T05:52:43.414Z,30.00
2019-03-19T05:55:12.563Z,27.00
2019-03-19T05:57:49.481Z,27.50
2019-03-19T06:00:13.485Z,29.00
2019-03-19T06:02:42.584Z,24.00
2019-03-19T06:05:11.904Z,28.00
2019-03-19T06:07:41.028Z,26.00
2019-03-19T06:10:10.274Z,28.00
2019-03-19T06:12:39.418Z,28.00
2019-03-19T06:15:08.639Z,26.50
2019-03-19T06:17:37.726Z,25.00
2019-03-19T06:20:07.193Z,27.50
2019-03-19T06:22:36.320Z,25.50
2019-03-19T06:25:06.681Z,27.50
2019-03-19T06:27:35.834Z,25.50
2019-03-19T06:30:06.479Z,36.00
2019-03-19T06:32:35.492Z,29.50
2019-03-19T06:35:05.054Z,34.00
2019-03-19T06:37:34.098Z,31.50
2019-03-19T06:40:03.120Z,36.50
2019-03-19T06:42:32.134Z,38.00
2019-03-19T06:45:01.170Z,32.50
2019-03-19T06:47:30.174Z,41.50
2019-03-19T06:49:59.183Z,41.00
2019-03-19T06:52:28.212Z,37.00
2019-03-19T06:54:57.231Z,33.00
2019-03-19T06:57:26.279Z,38.50
2019-03-19T06:59:55.302Z,39.50
2019-03-19T07:02:24.334Z,32.00
2019-03-19T07:04:53.343Z,37.00
2019-03-19T07:07:22.364Z,39.50
2019-03-19T07:09:51.424Z,40.50
2019-03-19T07:12:20.522Z,37.00
2019-03-19T07:14:49.551Z,37.50
2019-03-19T07:17:18.590Z,44.50
2019-03-19T07:19:47.597Z,45.50
2019-03-19T07:22:16.613Z,42.00
2019-03-19T07:24:48.010Z,40.00
2019-03-19T07:27:16.347Z,46.50
2019-03-19T07:29:45.359Z,34.00
2019-03-19T07:32:14.473Z,41.50
2019-03-19T07:34:43.493Z,44.00
2019-03-19T07:37:12.517Z,41.00
2019-03-19T07:39:41.536Z,38.00
2019-03-19T07:42:10.584Z,45.00
2019-03-19T07:44:39.597Z,44.50
2019-03-19T07:47:08.570Z,48.50
2019-03-19T07:49:37.576Z,48.50
2019-03-19T07:52:06.627Z,43.00
2019-03-19T07:54:35.740Z,49.00
2019-03-19T07:57:04.737Z,48.00
2019-03-19T07:59:33.726Z,48.50
2019-03-19T08:02:02.751Z,46.00
2019-03-19T08:04:31.810Z,43.50
2019-03-19T08:07:00.869Z,42.00
2019-03-19T08:09:30.192Z,44.50
2019-03-19T08:11:59.168Z,48.50
2019-03-19T08:14:28.197Z,51.50
2019-03-19T08:16:58.867Z,49.50
2019-03-19T08:19:27.845Z,50.00
2019-03-19T08:21:56.873Z,51.50
2019-03-19T08:24:25.852Z,48.50
2019-03-19T08:26:54.917Z,48.00
2019-03-19T08:29:23.895Z,52.50
2019-03-19T08:31:53.259Z,45.50
2019-03-19T08:34:22.553Z,52.50
2019-03-19T08:36:51.630Z,49.00
2019-03-19T08:39:20.780Z,53.00
2019-03-19T08:41:49.818Z,55.50
2019-03-19T08:44:27.450Z,56.00
2019-03-19T08:46:49.665Z,47.50
2019-03-19T08:49:18.685Z,53.50
2019-03-19T08:51:47.702Z,49.50
2019-03-19T08:54:16.715Z,55.00
2019-03-19T08:56:45.795Z,63.00
2019-03-19T08:59:14.796Z,58.50
2019-03-19T09:01:43.812Z,50.00
2019-03-19T09:04:13.881Z,62.50
2019-03-19T09:06:42.913Z,54.50
2019-03-19T09:09:12.051Z,61.00
2019-03-19T09:11:41.085Z,52.50
2019-03-19T09:14:10.225Z,61.50
2019-03-19T09:16:39.346Z,57.00
2019-03-19T09:19:08.368Z,58.00
2019-03-19T09:21:37.382Z,60.50
2019-03-19T09:24:06.524Z,62.50
2019-03-19T09:26:35.557Z,64.00
2019-03-19T09:29:04.724Z,61.75
2019-03-19T09:31:33.827Z,53.25
2019-03-19T09:34:02.831Z,54.25
2019-03-19T09:36:31.999Z,58.00
2019-03-19T09:39:01.155Z,58.50
2019-03-19T09:41:30.158Z,59.75
2019-03-19T09:43:59.232Z,60.50
2019-03-19T09:46:28.229Z,59.75
2019-03-19T09:48:57.297Z,62.00
2019-03-19T09:51:28.355Z,58.75
2019-03-19T09:53:57.365Z,61.25
2019-03-19T09:56:27.866Z,60.25
2019-03-19T09:58:56.942Z,58.25
2019-03-19T10:01:25.940Z,58.50
2019-03-19T10:03:54.968Z,58.25
2019-03-19T10:06:24.015Z,58.75
2019-03-19T10:08:53.005Z,57.75
2019-03-19T10:11:22.091Z,57.50
2019-03-19T10:13:51.113Z,56.25
2019-03-19T10:16:20.110Z,58.50
2019-03-19T10:18:49.191Z,57.25
2019-03-19T10:21:18.232Z,55.50
2019-03-19T10:23:47.256Z,54.50
2019-03-19T10:26:16.406Z,55.75
2019-03-19T10:28:45.488Z,56.50
2019-03-19T10:31:14.682Z,54.25
2019-03-19T10:33:43.715Z,52.75
2019-03-19T10:36:12.771Z,50.50
2019-03-19T10:38:41.799Z,50.50
2019-03-19T10:41:10.880Z,50.00
2019-03-19T10:43:39.977Z,54.25
2019-03-19T10:46:11.308Z,51.25
2019-03-19T10:48:40.343Z,39.50
2019-03-19T10:51:09.372Z,52.00
2019-03-19T10:53:38.464Z,50.75
2019-03-19T10:56:07.542Z,50.25
2019-03-19T10:58:36.548Z,51.25
2019-03-19T11:01:07.176Z,51.75
2019-03-19T11:03:36.275Z,52.50
2019-03-19T11:06:05.351Z,56.25
2019-03-19T11:08:34.346Z,50.00
2019-03-19T11:11:03.765Z,53.75
2019-03-19T11:13:32.846Z,52.00
2019-03-19T11:16:01.869Z,57.75
2019-03-19T11:18:30.830Z,51.50
2019-03-19T11:20:59.938Z,57.75
2019-03-19T11:23:28.951Z,53.25
2019-03-19T11:25:57.964Z,56.50
2019-03-19T11:28:26.972Z,52.00
2019-03-19T11:30:56.082Z,58.75
2019-03-19T11:33:26.823Z,39.00
2019-03-19T11:35:55.791Z,48.25
2019-03-19T11:38:24.786Z,63.25
2019-03-19T11:40:53.821Z,43.50
2019-03-19T11:43:22.850Z,42.75
2019-03-19T11:45:51.997Z,37.50
2019-03-19T11:48:20.970Z,48.50
2019-03-19T11:50:49.974Z,44.50
2019-03-19T11:53:19.006Z,48.75
2019-03-19T11:55:48.069Z,42.75
2019-03-19T11:58:17.213Z,47.00
2019-03-19T12:00:49.273Z,38.75
2019-03-19T12:03:18.354Z,33.50
2019-03-19T12:05:47.368Z,38.00
2019-03-19T12:08:16.409Z,41.75
2019-03-19T12:10:45.491Z,42.25
2019-03-19T12:13:14.611Z,37.75
2019-03-19T12:15:43.627Z,35.75
2019-03-19T12:18:12.639Z,40.75
2019-03-19T12:20:41.736Z,36.00
2019-03-19T12:23:10.821Z,34.25
2019-03-19T12:25:39.813Z,34.25
2019-03-19T12:28:08.844Z,38.25
2019-03-19T12:30:37.931Z,36.00
2019-03-19T12:33:08.540Z,36.00
2019-03-19T12:35:37.520Z,38.25
2019-03-19T12:38:06.657Z,36.75
2019-03-19T12:40:37.160Z,28.50
2019-03-19T12:43:06.784Z,32.00
2019-03-19T12:45:35.948Z,24.00
2019-03-19T12:48:05.359Z,23.75
2019-03-19T12:50:34.368Z,24.00
2019-03-19T12:53:03.518Z,26.25
2019-03-19T12:55:32.540Z,35.25
2019-03-19T12:58:01.691Z,30.75
2019-03-19T13:00:34.772Z,25.50
2019-03-19T13:03:01.655Z,24.50
2019-03-19T13:05:30.662Z,26.25
2019-03-19T13:07:59.782Z,31.75
2019-03-19T13:10:28.783Z,29.25
2019-03-19T13:12:57.855Z,32.75
2019-03-19T13:15:27.073Z,29.75
2019-03-19T13:17:56.071Z,32.75
2019-03-19T13:20:25.299Z,29.50
2019-03-19T13:26:05.903Z,31.25
2019-03-19T13:28:34.956Z,29.00
2019-03-19T13:31:04.059Z,25.50
2019-03-19T13:33:33.084Z,31.50
2019-03-19T13:36:02.150Z,28.00
2019-03-19T13:38:31.154Z,30.50
2019-03-19T13:41:00.146Z,29.50
2019-03-19T13:43:29.183Z,29.50
2019-03-19T13:45:58.233Z,31.00
2019-03-19T13:48:27.214Z,26.75
2019-03-19T13:50:56.246Z,27.00
2019-03-19T13:53:25.243Z,26.75
2019-03-19T13:55:54.313Z,29.00
2019-03-19T13:58:27.287Z,25.25
2019-03-19T14:00:56.383Z,25.25
2019-03-19T14:03:25.422Z,25.00
2019-03-19T14:05:54.506Z,29.00
2019-03-19T14:08:24.932Z,28.50
2019-03-19T14:10:54.348Z,32.75
2019-03-19T14:13:23.797Z,27.75
2019-03-19T14:15:52.784Z,30.50
2019-03-19T14:18:21.809Z,31.00
2019-03-19T14:20:50.834Z,34.75
2019-03-19T14:23:19.908Z,33.50
2019-03-19T14:25:49.490Z,35.50
2019-03-19T14:28:19.666Z,32.75
2019-03-19T14:30:48.907Z,26.50
2019-03-19T14:33:17.913Z,29.75
2019-03-19T14:35:48.457Z,29.00
2019-03-19T14:38:17.450Z,31.50
2019-03-19T14:40:46.606Z,27.75
2019-03-19T14:43:15.630Z,28.50
2019-03-19T14:45:44.730Z,30.50
2019-03-19T14:48:13.809Z,32.75
2019-03-19T14:50:42.888Z,36.00
2019-03-19T14:53:13.220Z,28.25
2019-03-19T14:55:42.348Z,29.50
2019-03-19T14:58:11.373Z,35.50
2019-03-19T15:00:40.465Z,28.75
2019-03-19T15:03:09.459Z,33.75
2019-03-19T15:05:38.569Z,33.00
2019-03-19T15:08:07.623Z,33.25
2019-03-19T15:10:39.008Z,34.00
2019-03-19T15:13:08.060Z,29.75
2019-03-19T15:15:37.085Z,36.00
2019-03-19T15:18:08.476Z,36.75
2019-03-19T15:20:37.489Z,28.50
2019-03-19T15:23:06.667Z,35.25
2019-03-19T15:25:36.885Z,31.25
2019-03-19T15:28:06.136Z,34.00
2019-03-19T15:30:40.177Z,31.25
2019-03-19T15:33:09.199Z,30.00
2019-03-19T15:35:38.172Z,41.75
2019-03-19T15:38:07.267Z,31.75
2019-03-19T15:40:37.054Z,32.50
2019-03-19T15:43:06.131Z,35.25
2019-03-19T15:45:35.268Z,25.50
2019-03-19T15:48:04.367Z,21.00
2019-03-19T15:50:33.451Z,21.00
2019-03-19T15:53:02.500Z,20.75
2019-03-19T15:55:31.570Z,26.00
2019-03-19T15:58:00.653Z,22.25
2019-03-19T16:00:29.738Z,20.50
2019-03-19T16:02:58.762Z,25.25
2019-03-19T16:05:27.795Z,22.00
2019-03-19T16:07:56.776Z,26.00
2019-03-19T16:10:25.878Z,20.00
2019-03-19T16:12:54.891Z,20.50
2019-03-19T16:15:24.156Z,22.50
2019-03-19T16:17:53.188Z,22.50
2019-03-19T16:20:22.365Z,17.50
2019-03-19T16:22:51.510Z,19.50
2019-03-19T16:25:22.126Z,20.75
2019-03-19T16:27:51.111Z,20.50
2019-03-19T16:30:20.253Z,19.25
2019-03-19T16:32:49.434Z,15.75
2019-03-19T16:35:18.587Z,16.00
2019-03-19T16:37:47.716Z,18.50
2019-03-19T16:40:17.827Z,19.00
2019-03-19T16:42:46.955Z,23.25
2019-03-19T16:45:18.087Z,17.00
2019-03-19T16:47:47.017Z,19.00
2019-03-19T16:50:16.191Z,19.25
2019-03-19T16:52:45.176Z,20.00
2019-03-19T16:55:14.548Z,23.75
2019-03-19T16:57:43.750Z,18.50
2019-03-19T17:00:15.075Z,19.00
2019-03-19T17:02:44.104Z,20.75
2019-03-19T17:05:14.854Z,22.25
2019-03-19T17:07:44.020Z,20.50
2019-03-19T17:10:14.022Z,21.50
2019-03-19T17:12:43.130Z,19.50
2019-03-19T17:15:12.691Z,23.75
2019-03-19T17:17:41.869Z,22.50
2019-03-19T17:20:12.140Z,19.75
2019-03-19T17:22:41.480Z,21.50
2019-03-19T17:25:12.056Z,24.00
2019-03-19T17:27:41.138Z,19.25
2019-03-19T17:30:17.363Z,23.25
2019-03-19T17:32:46.611Z,17.25
2019-03-19T17:35:15.611Z,20.50
2019-03-19T17:37:44.636Z,18.50
2019-03-19T17:40:13.906Z,13.75
2019-03-19T17:42:42.938Z,19.50
2019-03-19T17:45:12.266Z,17.50
2019-03-19T17:47:41.314Z,16.50
2019-03-19T17:50:34.936Z,22.00
2019-03-19T17:53:04.021Z,22.50
2019-03-19T17:55:33.070Z,25.25
2019-03-19T17:58:02.068Z,26.25
2019-03-19T18:00:31.376Z,25.25
2019-03-19T18:03:04.699Z,29.75
2019-03-19T18:05:36.987Z,27.00
2019-03-19T18:08:07.720Z,22.25
2019-03-19T18:10:36.737Z,24.50
2019-03-19T18:13:06.752Z,24.25
2019-03-19T18:15:36.083Z,23.25
2019-03-19T18:18:05.353Z,25.25
2019-03-19T18:20:34.366Z,27.75
2019-03-19T18:23:03.701Z,25.50
2019-03-19T18:25:32.699Z,24.00
2019-03-19T18:28:01.722Z,23.00
2019-03-19T18:30:31.785Z,22.75
2019-03-19T18:33:00.867Z,20.50
2019-03-19T18:35:29.895Z,24.00
2019-03-19T18:37:59.049Z,24.50
2019-03-19T18:40:29.049Z,23.75
2019-03-19T18:42:58.390Z,24.25
2019-03-19T18:45:27.426Z,25.00
2019-03-19T18:47:56.503Z,28.25
2019-03-19T18:54:07.992Z,22.50
2019-03-19T18:56:37.002Z,25.25
2019-03-19T18:59:06.052Z,25.00
2019-03-19T19:01:35.067Z,22.75
2019-03-19T19:04:05.395Z,26.50
2019-03-19T19:06:34.437Z,23.75
2019-03-19T19:09:04.141Z,29.25
2019-03-19T19:11:33.241Z,26.75
2019-03-19T19:14:02.251Z,31.50
2019-03-19T19:16:31.440Z,30.25
2019-03-19T19:19:01.723Z,33.25
2019-03-19T19:21:31.362Z,34.25
2019-03-19T19:24:01.136Z,39.00
2019-03-19T19:26:30.213Z,33.00
2019-03-19T19:28:59.583Z,35.00
2019-03-19T19:31:28.716Z,41.50
2019-03-19T19:33:57.779Z,36.75
2019-03-19T19:36:26.782Z,40.50
2019-03-19T19:38:56.038Z,41.50
2019-03-19T19:41:25.133Z,41.25
2019-03-19T19:43:54.254Z,39.25
2019-03-19T19:46:23.307Z,46.50
2019-03-19T19:48:52.309Z,41.50
2019-03-19T19:51:23.203Z,42.25
2019-03-19T19:53:52.221Z,43.00
2019-03-19T19:56:21.274Z,37.50
2019-03-19T19:58:50.360Z,39.50
2019-03-19T20:01:21.760Z,39.25
2019-03-19T20:03:50.731Z,39.50
2019-03-19T20:06:19.887Z,40.25
2019-03-19T20:08:48.932Z,38.75
2019-03-19T20:11:18.002Z,42.00
2019-03-19T20:13:54.418Z,43.50
2019-03-19T20:16:23.504Z,43.25
2019-03-19T20:18:52.527Z,45.25
2019-03-19T20:21:22.647Z,43.75
2019-03-19T20:23:51.967Z,40.75
2019-03-19T20:26:21.051Z,39.75
2019-03-19T20:28:50.075Z,43.75
2019-03-19T20:31:20.193Z,43.50
2019-03-19T20:33:49.247Z,41.25
2019-03-19T20:36:18.505Z,40.25
2019-03-19T20:38:47.544Z,45.50
2019-03-19T20:41:16.621Z,41.50
2019-03-19T20:43:45.701Z,44.00
2019-03-19T20:46:14.702Z,43.75
2019-03-19T20:48:44.892Z,39.00
2019-03-19T20:51:13.981Z,48.50
2019-03-19T20:53:43.143Z,47.00
2019-03-19T20:56:12.219Z,45.50
2019-03-19T20:58:43.777Z,44.50
2019-03-19T21:01:11.972Z,48.50
2019-03-19T21:03:40.972Z,51.00
2019-03-19T21:06:10.075Z,52.00
2019-03-19T21:08:39.059Z,42.00
2019-03-19T21:11:08.062Z,53.50
2019-03-19T21:13:37.142Z,44.50
2019-03-19T21:16:08.629Z,50.50
2019-03-19T21:18:37.682Z,55.50
2019-03-19T21:21:06.747Z,51.50
2019-03-19T21:23:35.803Z,42.50
2019-03-19T21:26:04.878Z,49.50
2019-03-19T21:28:34.055Z,49.00
2019-03-19T21:31:03.049Z,45.00
2019-03-19T21:33:32.084Z,45.50
2019-03-19T21:36:01.258Z,53.00
2019-03-19T21:38:30.318Z,55.00
2019-03-19T21:40:59.516Z,44.50
2019-03-19T21:43:28.583Z,43.00
2019-03-19T21:45:57.724Z,50.50
2019-03-19T21:48:26.688Z,49.50
2019-03-19T21:50:55.735Z,48.50
2019-03-19T21:53:24.906Z,44.00
2019-03-19T21:55:53.909Z,47.50
2019-03-19T21:58:23.342Z,51.00
2019-03-19T22:00:52.760Z,45.00
2019-03-19T22:03:21.891Z,48.00
2019-03-19T22:05:50.939Z,41.50
2019-03-19T22:08:20.007Z,44.00
2019-03-19T22:10:49.120Z,44.00
2019-03-19T22:13:18.263Z,46.50
2019-03-19T22:15:47.346Z,42.50
2019-03-19T22:18:16.405Z,45.50
2019-03-19T22:20:45.465Z,46.50
2019-03-19T22:23:16.723Z,51.50
2019-03-19T22:25:45.803Z,41.50
2019-03-19T22:28:14.838Z,43.50
2019-03-19T22:30:43.907Z,47.00
2019-03-19T22:33:12.913Z,49.00
2019-03-19T22:35:42.017Z,43.00
2019-03-19T22:38:11.010Z,46.00
2019-03-19T22:40:40.074Z,41.50
2019-03-19T22:43:09.082Z,40.50
2019-03-19T22:45:38.176Z,46.50
2019-03-19T22:48:07.173Z,48.50
2019-03-19T22:50:36.190Z,45.00
2019-03-19T22:53:07.347Z,39.50
2019-03-19T22:55:36.344Z,43.50
2019-03-19T22:58:05.985Z,41.00
2019-03-19T23:00:47.215Z,45.50
2019-03-19T23:03:16.298Z,41.50
2019-03-19T23:05:48.308Z,41.50
2019-03-19T23:08:17.377Z,48.00
2019-03-19T23:10:46.467Z,43.50
2019-03-19T23:13:15.624Z,40.00
2019-03-19T23:15:44.763Z,46.00
2019-03-19T23:18:13.835Z,47.50
2019-03-19T23:20:42.933Z,45.00
2019-03-19T23:23:12.064Z,42.00
2019-03-19T23:25:41.147Z,44.50
2019-03-19T23:28:10.280Z,45.50
2019-03-19T23:30:39.412Z,46.00
2019-03-19T23:33:08.568Z,37.00
2019-03-19T23:35:37.782Z,43.50
2019-03-19T23:38:06.788Z,44.00
2019-03-19T23:40:35.935Z,45.00
2019-03-19T23:43:05.060Z,46.00
2019-03-19T23:45:34.071Z,41.00
2019-03-19T23:48:03.182Z,42.00
2019-03-19T23:50:32.189Z,42.00
2019-03-19T23:53:01.267Z,43.50
2019-03-19T23:55:30.326Z,41.00
2019-03-19T23:57:59.323Z,46.00
